Time;durP1;ratioP1;P1;durP2;ratioP2;P2;SDS_P1;SDS_P2;PMS_P1;PMS_P2;Temp;Humidity;BMP_temperature;BMP_pressure;BME280_temperature;BME280_humidity;BME280_pressure;Samples;Min_cycle;Max_cycle;Signal;HPM_P1;HPM_P2
2023/03/11 00:00:53;;;;;;;2.80;1.42;;;2.50;99.90;;;;;;5063121;28;20035;-73
2023/03/11 00:03:22;;;;;;;4.00;2.22;;;2.50;99.90;;;;;;5061055;28;20055;-72
2023/03/11 00:05:48;;;;;;;3.60;2.63;;;2.50;99.90;;;;;;5061294;28;20037;-74
2023/03/11 00:08:17;;;;;;;3.88;2.97;;;2.40;99.90;;;;;;5061276;28;20039;-74
2023/03/11 00:10:45;;;;;;;3.53;1.92;;;2.40;99.90;;;;;;5075638;28;20053;-73
2023/03/11 00:13:14;;;;;;;4.28;2.10;;;2.30;99.90;;;;;;5062777;28;20036;-74
2023/03/11 00:15:43;;;;;;;1.98;1.63;;;2.30;99.90;;;;;;5061369;28;20049;-73
2023/03/11 00:18:09;;;;;;;3.03;1.48;;;2.30;99.90;;;;;;5062311;28;20033;-73
2023/03/11 00:20:37;;;;;;;4.57;3.20;;;2.30;99.90;;;;;;5059766;28;20462;-73
2023/03/11 00:23:06;;;;;;;2.92;1.83;;;2.30;99.90;;;;;;5073082;28;20044;-73
2023/03/11 00:25:34;;;;;;;4.93;2.58;;;2.20;99.90;;;;;;5060027;28;20044;-73
2023/03/11 00:28:01;;;;;;;4.72;1.55;;;2.30;99.90;;;;;;5060818;28;20029;-73
2023/03/11 00:30:28;;;;;;;5.93;3.88;;;2.20;99.90;;;;;;5063410;28;20033;-73
2023/03/11 00:32:57;;;;;;;3.88;1.75;;;2.20;99.90;;;;;;5061282;28;20055;-73
2023/03/11 00:35:29;;;;;;;3.65;1.92;;;2.20;99.90;;;;;;5062471;28;20044;-73
2023/03/11 00:37:58;;;;;;;2.95;1.67;;;2.10;99.90;;;;;;5045607;28;20050;-74
2023/03/11 00:40:27;;;;;;;4.13;2.28;;;2.10;99.90;;;;;;5062440;28;20144;-73
2023/03/11 00:42:53;;;;;;;2.80;1.30;;;2.20;99.90;;;;;;5064549;28;20051;-73
2023/03/11 00:45:21;;;;;;;3.75;1.20;;;2.20;99.90;;;;;;5064314;28;20049;-73
2023/03/11 00:47:47;;;;;;;3.28;1.38;;;2.10;99.90;;;;;;5064067;28;20032;-73
2023/03/11 00:50:20;;;;;;;1.30;0.77;;;2.00;99.90;;;;;;5058380;28;20041;-73
2023/03/11 00:52:48;;;;;;;3.33;0.68;;;2.00;99.90;;;;;;5080390;28;20040;-73
2023/03/11 00:55:16;;;;;;;5.15;0.90;;;2.00;99.90;;;;;;5066630;28;20347;-73
2023/03/11 00:57:43;;;;;;;3.10;0.95;;;2.00;99.90;;;;;;5057552;28;20041;-73
2023/03/11 01:00:15;;;;;;;5.60;1.20;;;2.00;99.90;;;;;;5078531;28;20041;-73
2023/03/11 01:02:42;;;;;;;4.65;0.93;;;2.00;99.90;;;;;;5053133;28;20048;-73
2023/03/11 01:05:09;;;;;;;4.22;1.30;;;2.00;99.90;;;;;;5065762;28;20068;-73
2023/03/11 01:07:35;;;;;;;3.90;1.73;;;2.00;99.90;;;;;;5064455;28;20115;-73
2023/03/11 01:10:04;;;;;;;3.35;1.15;;;2.00;99.90;;;;;;5064988;28;20377;-73
2023/03/11 01:12:30;;;;;;;2.10;0.75;;;2.10;99.90;;;;;;5065570;28;20527;-73
2023/03/11 01:15:00;;;;;;;5.82;1.55;;;2.00;99.90;;;;;;5065759;28;20047;-74
2023/03/11 01:17:26;;;;;;;3.15;1.30;;;2.00;99.90;;;;;;5062504;28;20037;-73
2023/03/11 01:19:52;;;;;;;7.60;1.05;;;2.10;99.90;;;;;;5073079;28;20366;-73
2023/03/11 01:22:18;;;;;;;6.03;1.25;;;2.10;99.90;;;;;;5065904;28;20052;-74
2023/03/11 01:24:44;;;;;;;5.57;1.40;;;2.00;99.90;;;;;;5065065;28;20041;-73
2023/03/11 01:27:10;;;;;;;3.40;0.88;;;2.10;99.90;;;;;;5065428;28;20051;-73
2023/03/11 01:29:37;;;;;;;3.80;1.20;;;2.00;99.90;;;;;;5063257;28;20025;-74
2023/03/11 01:32:03;;;;;;;5.15;1.58;;;2.00;99.90;;;;;;5063994;28;20386;-73
2023/03/11 01:34:30;;;;;;;4.15;1.08;;;1.90;99.90;;;;;;5068226;28;20037;-73
2023/03/11 01:36:58;;;;;;;8.43;2.55;;;1.90;99.90;;;;;;5058358;28;20421;-74
2023/03/11 01:39:24;;;;;;;2.83;1.38;;;1.90;99.90;;;;;;5064572;28;20463;-73
2023/03/11 01:41:51;;;;;;;4.53;0.80;;;1.80;99.90;;;;;;5063791;28;20045;-73
2023/03/11 01:44:18;;;;;;;3.72;1.13;;;1.80;99.90;;;;;;5059755;28;20045;-72
2023/03/11 01:46:53;;;;;;;4.40;1.80;;;1.90;99.90;;;;;;5047767;28;20040;-73
2023/03/11 01:49:26;;;;;;;7.60;2.42;;;1.90;99.90;;;;;;5060371;28;20481;-74
2023/03/11 01:51:59;;;;;;;4.40;0.90;;;1.90;99.90;;;;;;5063788;28;20045;-73
2023/03/11 01:54:37;;;;;;;3.13;1.25;;;1.80;99.90;;;;;;5052987;28;20045;-73
2023/03/11 01:57:11;;;;;;;3.28;1.02;;;1.80;99.90;;;;;;5059372;28;20366;-73
2023/03/11 01:59:43;;;;;;;4.75;0.93;;;1.80;99.90;;;;;;5058327;28;20067;-74
2023/03/11 02:02:21;;;;;;;0.88;0.32;;;1.80;99.90;;;;;;5065594;28;20029;-74
2023/03/11 02:04:49;;;;;;;1.60;0.52;;;1.80;99.90;;;;;;5059815;28;20056;-73
2023/03/11 02:07:16;;;;;;;2.40;0.50;;;1.90;99.90;;;;;;5069158;28;20051;-73
2023/03/11 02:09:44;;;;;;;2.92;0.50;;;1.90;99.90;;;;;;5059131;28;20037;-72
2023/03/11 02:12:13;;;;;;;4.30;0.70;;;2.00;99.90;;;;;;5078614;28;20513;-73
2023/03/11 02:14:45;;;;;;;3.67;0.77;;;2.10;99.90;;;;;;5052595;28;20048;-72
2023/03/11 02:17:11;;;;;;;6.30;1.33;;;2.10;99.90;;;;;;5059796;28;20045;-73
2023/03/11 02:20:00;;;;;;;3.63;1.08;;;2.10;99.90;;;;;;5070682;28;20034;-74
2023/03/11 02:22:30;;;;;;;5.63;0.98;;;2.00;99.90;;;;;;5066837;28;20041;-75
2023/03/11 02:25:03;;;;;;;3.50;0.80;;;2.00;99.90;;;;;;5063586;28;20052;-73
2023/03/11 02:27:33;;;;;;;4.43;1.08;;;2.00;99.90;;;;;;5068367;28;20041;-74
2023/03/11 02:30:03;;;;;;;4.15;1.27;;;2.00;99.90;;;;;;5063388;28;20048;-74
2023/03/11 02:32:34;;;;;;;5.97;1.85;;;1.90;99.90;;;;;;5054188;28;20056;-74
2023/03/11 02:35:00;;;;;;;4.47;1.17;;;1.80;99.90;;;;;;5059640;28;20043;-74
2023/03/11 02:37:26;;;;;;;3.55;0.77;;;1.70;99.90;;;;;;5063216;28;20099;-75
2023/03/11 02:40:23;;;;;;;1.13;0.43;;;1.70;99.90;;;;;;5049794;28;20040;-73
2023/03/11 02:42:56;;;;;;;5.38;0.75;;;1.70;99.90;;;;;;5061229;28;20061;-75
2023/03/11 02:45:25;;;;;;;5.50;0.63;;;1.60;99.90;;;;;;5053002;28;20076;-75
2023/03/11 02:47:57;;;;;;;1.40;0.70;;;1.70;99.90;;;;;;5058713;28;20633;-74
2023/03/11 02:50:27;;;;;;;3.95;1.25;;;1.70;99.90;;;;;;5053448;28;20041;-75
2023/03/11 02:52:54;;;;;;;;;;;1.60;99.90;;;;;;5069326;28;20045;-75
2023/03/11 02:55:25;;;;;;;4.60;1.00;;;1.70;99.90;;;;;;5076740;28;19912;-74
2023/03/11 02:57:51;;;;;;;3.20;0.60;;;1.70;99.90;;;;;;5060959;28;20036;-74
2023/03/11 03:00:17;;;;;;;5.40;0.57;;;1.80;99.90;;;;;;5060258;28;20052;-74
2023/03/11 03:02:52;;;;;;;3.40;1.88;;;1.80;99.90;;;;;;5075404;28;20037;-74
2023/03/11 03:05:20;;;;;;;3.40;0.98;;;1.80;99.90;;;;;;5063379;28;20044;-74
2023/03/11 03:07:47;;;;;;;7.78;2.55;;;1.70;99.90;;;;;;5044806;28;20045;-74
2023/03/11 03:10:15;;;;;;;3.35;0.45;;;1.70;99.90;;;;;;5063736;28;20045;-74
2023/03/11 03:12:42;;;;;;;2.05;0.75;;;1.80;99.90;;;;;;5060882;28;20466;-74
2023/03/11 03:15:10;;;;;;;5.53;0.50;;;1.80;99.90;;;;;;5063476;28;20045;-74
2023/03/11 03:17:37;;;;;;;3.90;0.63;;;1.80;99.90;;;;;;5060294;28;20044;-74
2023/03/11 03:20:10;;;;;;;4.60;0.73;;;1.60;99.90;;;;;;5078793;28;20032;-74
2023/03/11 03:22:38;;;;;;;3.63;0.73;;;1.60;99.90;;;;;;5066268;28;20056;-75
2023/03/11 03:25:06;;;;;;;3.95;0.82;;;1.70;99.90;;;;;;5060540;28;20041;-73
2023/03/11 03:27:33;;;;;;;6.25;0.80;;;1.60;99.90;;;;;;5061383;28;20085;-73
2023/03/11 03:30:03;;;;;;;4.38;0.80;;;1.60;99.90;;;;;;5060614;28;20490;-75
2023/03/11 03:32:29;;;;;;;3.25;1.13;;;1.50;99.90;;;;;;5082188;28;20036;-74
2023/03/11 03:34:57;;;;;;;4.80;0.80;;;1.50;99.90;;;;;;5069400;28;20213;-74
2023/03/11 03:37:35;;;;;;;6.47;1.40;;;1.50;99.90;;;;;;5068374;28;20458;-75
2023/03/11 03:40:06;;;;;;;2.38;0.68;;;1.50;99.90;;;;;;5065693;28;20052;-75
2023/03/11 03:42:35;;;;;;;4.43;1.00;;;1.50;99.90;;;;;;5067847;28;20496;-74
2023/03/11 03:45:04;;;;;;;6.10;1.60;;;1.50;99.90;;;;;;5072216;28;20045;-74
2023/03/11 03:47:31;;;;;;;3.58;0.73;;;1.50;99.90;;;;;;5072449;28;20053;-75
2023/03/11 03:49:57;;;;;;;3.15;0.80;;;1.40;99.90;;;;;;5061768;28;20041;-75
2023/03/11 03:52:24;;;;;;;2.42;0.70;;;1.50;99.90;;;;;;5064321;28;20394;-75
2023/03/11 03:54:51;;;;;;;2.65;1.00;;;1.40;99.90;;;;;;5060165;28;20048;-75
2023/03/11 03:57:17;;;;;;;2.45;0.73;;;1.40;99.90;;;;;;5081578;28;20041;-74
2023/03/11 03:59:45;;;;;;;6.53;0.73;;;1.40;99.90;;;;;;5068114;28;20059;-74
2023/03/11 04:02:12;;;;;;;3.75;0.52;;;1.50;99.90;;;;;;5060334;28;20052;-74
2023/03/11 04:04:38;;;;;;;3.72;0.77;;;1.50;99.90;;;;;;5080787;28;20469;-74
2023/03/11 04:07:05;;;;;;;1.20;0.30;;;1.50;99.90;;;;;;5078294;28;20025;-74
2023/03/11 04:09:32;;;;;;;3.92;0.50;;;1.40;99.90;;;;;;5076015;28;20041;-74
2023/03/11 04:11:59;;;;;;;2.80;0.50;;;1.40;99.90;;;;;;5064553;28;20071;-75
2023/03/11 04:14:26;;;;;;;3.88;0.70;;;1.40;99.90;;;;;;5095650;28;20047;-75
2023/03/11 04:16:57;;;;;;;4.22;0.88;;;1.40;99.90;;;;;;5100401;28;20047;-74
2023/03/11 04:19:24;;;;;;;5.10;0.70;;;1.40;99.90;;;;;;5078479;28;20037;-76
2023/03/11 04:21:50;;;;;;;2.53;1.08;;;1.40;99.90;;;;;;5094611;28;20035;-75
2023/03/11 04:24:18;;;;;;;2.35;0.50;;;1.50;99.90;;;;;;5095745;28;20020;-75
2023/03/11 04:26:44;;;;;;;12.90;0.93;;;1.60;99.90;;;;;;5084813;28;20037;-75
2023/03/11 04:29:14;;;;;;;3.03;0.60;;;1.60;99.90;;;;;;5076020;28;20040;-74
2023/03/11 04:31:46;;;;;;;8.27;1.27;;;1.50;99.90;;;;;;5068282;28;20047;-75
2023/03/11 04:34:13;;;;;;;4.65;0.80;;;1.50;99.90;;;;;;5061340;28;20029;-74
2023/03/11 04:36:39;;;;;;;5.60;0.63;;;1.50;99.90;;;;;;5054906;28;20052;-76
2023/03/11 04:39:07;;;;;;;5.80;0.93;;;1.40;99.90;;;;;;5074003;28;20485;-75
2023/03/11 04:41:38;;;;;;;13.15;1.30;;;1.40;99.90;;;;;;5077257;28;20045;-75
2023/03/11 04:44:06;;;;;;;3.92;1.20;;;1.30;99.90;;;;;;5059785;28;20048;-74
2023/03/11 04:46:32;;;;;;;3.03;1.17;;;1.20;99.90;;;;;;5072840;28;20048;-75
2023/03/11 04:48:59;;;;;;;3.67;0.95;;;1.10;99.90;;;;;;5086327;28;20052;-75
2023/03/11 04:51:26;;;;;;;3.60;1.77;;;1.10;99.90;;;;;;5079360;28;20044;-75
2023/03/11 04:53:52;;;;;;;4.75;1.13;;;1.00;99.90;;;;;;5049915;28;20398;-75
2023/03/11 04:56:19;;;;;;;4.70;0.73;;;0.90;99.90;;;;;;5055259;28;20052;-75
2023/03/11 04:58:46;;;;;;;5.63;1.40;;;0.90;99.90;;;;;;5052820;28;20048;-74
2023/03/11 05:01:13;;;;;;;3.58;0.82;;;0.90;99.90;;;;;;5062057;28;20044;-75
2023/03/11 05:03:39;;;;;;;5.68;2.47;;;0.80;99.90;;;;;;5059853;28;20393;-75
2023/03/11 05:06:06;;;;;;;4.93;1.30;;;0.90;99.90;;;;;;5050492;28;20056;-74
2023/03/11 05:08:32;;;;;;;4.22;1.00;;;0.90;99.90;;;;;;5061862;28;20035;-74
2023/03/11 05:10:58;;;;;;;4.25;1.17;;;0.90;99.90;;;;;;5050218;28;20064;-75
2023/03/11 05:13:25;;;;;;;4.85;0.90;;;0.90;99.90;;;;;;5051711;28;20045;-74
2023/03/11 05:15:52;;;;;;;5.70;0.88;;;0.80;99.90;;;;;;5049420;28;20170;-75
2023/03/11 05:18:18;;;;;;;3.20;0.70;;;0.90;99.90;;;;;;5061699;28;20036;-74
2023/03/11 05:20:45;;;;;;;3.55;0.90;;;1.00;99.90;;;;;;5061033;28;20048;-74
2023/03/11 05:23:13;;;;;;;1.55;0.65;;;1.10;99.90;;;;;;5057339;28;20041;-75
2023/03/11 05:25:40;;;;;;;4.70;0.80;;;1.10;99.90;;;;;;5048876;28;20489;-74
2023/03/11 05:28:07;;;;;;;6.45;0.57;;;1.10;99.90;;;;;;5056403;28;20048;-74
2023/03/11 05:30:38;;;;;;;6.38;0.75;;;1.10;99.90;;;;;;5050007;28;20354;-74
2023/03/11 05:33:04;;;;;;;2.17;0.60;;;1.00;99.90;;;;;;5049755;28;20052;-74
2023/03/11 05:35:30;;;;;;;3.70;0.60;;;1.00;99.90;;;;;;5055453;28;20056;-74
2023/03/11 05:37:57;;;;;;;2.13;0.88;;;0.90;99.90;;;;;;5078391;28;20040;-74
2023/03/11 05:40:26;;;;;;;6.10;0.93;;;0.80;99.90;;;;;;5061038;28;20041;-74
2023/03/11 05:42:53;;;;;;;2.65;0.85;;;0.70;99.90;;;;;;5051883;28;20049;-74
2023/03/11 05:45:19;;;;;;;2.38;0.70;;;0.70;99.90;;;;;;5064104;28;20059;-74
2023/03/11 05:47:48;;;;;;;2.78;0.65;;;0.70;99.90;;;;;;5051799;28;20048;-74
2023/03/11 05:50:15;;;;;;;4.22;0.82;;;0.70;99.90;;;;;;5063701;28;20040;-74
2023/03/11 05:52:44;;;;;;;6.30;0.75;;;0.60;99.90;;;;;;5063509;28;20385;-75
2023/03/11 05:55:14;;;;;;;6.63;0.77;;;0.60;99.90;;;;;;5052894;28;20049;-74
2023/03/11 05:57:43;;;;;;;6.43;1.23;;;0.60;99.90;;;;;;5057752;28;20044;-75
2023/03/11 06:00:11;;;;;;;3.08;0.50;;;0.60;99.90;;;;;;5056286;28;20393;-74
2023/03/11 06:02:40;;;;;;;3.53;0.70;;;0.50;99.90;;;;;;5065507;28;20044;-74
2023/03/11 06:05:09;;;;;;;3.67;0.70;;;0.60;99.90;;;;;;5061034;28;20033;-74
2023/03/11 06:07:36;;;;;;;9.18;0.77;;;0.50;99.90;;;;;;5053442;28;20402;-74
2023/03/11 06:10:04;;;;;;;1.02;0.60;;;0.60;99.90;;;;;;5054106;28;20474;-74
2023/03/11 06:12:37;;;;;;;2.80;0.80;;;0.60;99.90;;;;;;5053663;28;20045;-75
2023/03/11 06:15:12;;;;;;;3.95;1.10;;;0.60;99.90;;;;;;5056050;28;20041;-74
2023/03/11 06:17:40;;;;;;;3.63;1.52;;;0.60;99.90;;;;;;5072713;28;20048;-74
2023/03/11 06:20:08;;;;;;;4.28;1.50;;;0.70;99.90;;;;;;5061180;28;20056;-74
2023/03/11 06:22:35;;;;;;;6.38;0.90;;;0.70;99.90;;;;;;5054797;28;20081;-74
2023/03/11 06:25:01;;;;;;;5.35;0.73;;;0.80;99.90;;;;;;5060453;28;20041;-74
2023/03/11 06:27:30;;;;;;;3.63;0.82;;;0.70;99.90;;;;;;5066220;28;20037;-74
2023/03/11 06:29:57;;;;;;;4.40;0.93;;;0.70;99.90;;;;;;5054453;28;20044;-74
2023/03/11 06:32:24;;;;;;;6.05;1.15;;;0.70;99.90;;;;;;5063330;28;20040;-74
2023/03/11 06:34:51;;;;;;;5.57;1.20;;;0.80;99.90;;;;;;5061686;28;20052;-74
2023/03/11 06:37:19;;;;;;;3.25;1.08;;;0.90;99.90;;;;;;5062525;28;20379;-74
2023/03/11 06:39:46;;;;;;;4.57;0.90;;;1.10;99.90;;;;;;5063757;28;20103;-75
2023/03/11 06:42:19;;;;;;;2.85;0.80;;;1.30;99.90;;;;;;5047582;28;20048;-74
2023/03/11 06:44:49;;;;;;;2.72;0.88;;;1.50;99.90;;;;;;5056867;28;20044;-75
2023/03/11 06:47:15;;;;;;;6.65;1.63;;;1.50;99.90;;;;;;5064846;28;20048;-75
2023/03/11 06:49:41;;;;;;;5.53;1.02;;;1.50;99.90;;;;;;5052344;28;20048;-74
2023/03/11 06:52:08;;;;;;;6.20;1.20;;;1.50;99.90;;;;;;5060501;28;20033;-75
2023/03/11 06:54:35;;;;;;;5.65;1.88;;;1.60;99.90;;;;;;5061512;28;20037;-75
2023/03/11 06:57:01;;;;;;;5.80;1.13;;;1.70;99.90;;;;;;5061911;28;20103;-75
2023/03/11 06:59:27;;;;;;;5.35;1.13;;;1.80;99.90;;;;;;5064898;28;20377;-74
2023/03/11 07:01:54;;;;;;;6.10;1.10;;;2.10;99.90;;;;;;5059734;28;20041;-75
2023/03/11 07:04:24;;;;;;;3.35;1.45;;;2.40;99.90;;;;;;5062798;28;20020;-75
2023/03/11 07:06:50;;;;;;;6.28;1.20;;;2.30;99.90;;;;;;5058739;28;20053;-76
2023/03/11 07:09:21;;;;;;;8.10;1.67;;;2.50;99.90;;;;;;5066118;28;20041;-75
2023/03/11 07:11:48;;;;;;;5.95;1.77;;;2.70;99.90;;;;;;5063124;28;20099;-76
2023/03/11 07:14:21;;;;;;;7.18;1.70;;;2.90;99.90;;;;;;5053852;28;20041;-76
2023/03/11 07:16:51;;;;;;;5.05;1.42;;;3.10;99.90;;;;;;5061690;28;20401;-75
2023/03/11 07:19:26;;;;;;;5.50;1.50;;;3.30;99.90;;;;;;5060348;28;20044;-75
2023/03/11 07:21:52;;;;;;;11.93;1.65;;;3.30;99.90;;;;;;5063484;28;20032;-73
2023/03/11 07:24:18;;;;;;;6.57;1.30;;;3.30;99.90;;;;;;5063847;28;20032;-73
2023/03/11 07:26:45;;;;;;;6.05;1.27;;;3.40;99.90;;;;;;5060523;28;20051;-73
2023/03/11 07:29:11;;;;;;;7.03;1.38;;;3.60;99.90;;;;;;5063172;28;20028;-73
2023/03/11 07:31:37;;;;;;;4.75;1.63;;;3.40;99.90;;;;;;5059395;28;20382;-72
2023/03/11 07:34:10;;;;;;;5.55;1.60;;;3.30;99.90;;;;;;5052946;28;20486;-73
2023/03/11 07:36:39;;;;;;;3.75;0.98;;;3.30;99.90;;;;;;5047324;28;20232;-73
2023/03/11 07:39:05;;;;;;;6.90;1.30;;;3.40;99.90;;;;;;5062144;28;20466;-73
2023/03/11 07:41:34;;;;;;;5.05;1.52;;;3.20;99.90;;;;;;5065079;28;20024;-71
2023/03/11 07:44:01;;;;;;;4.00;1.33;;;3.30;99.90;;;;;;5058289;28;20381;-75
2023/03/11 07:46:29;;;;;;;3.95;0.82;;;3.20;99.90;;;;;;5062211;28;20032;-75
2023/03/11 07:48:55;;;;;;;4.53;1.27;;;3.20;99.90;;;;;;5063099;28;20474;-75
2023/03/11 07:51:27;;;;;;;3.58;1.20;;;3.30;99.90;;;;;;5060404;28;20044;-74
2023/03/11 07:53:55;;;;;;;4.57;1.58;;;3.40;99.90;;;;;;5063341;28;20047;-74
2023/03/11 07:56:23;;;;;;;4.85;1.23;;;3.60;99.90;;;;;;5049161;28;20052;-74
2023/03/11 07:58:49;;;;;;;7.85;1.30;;;4.10;99.90;;;;;;5059833;28;20040;-75
2023/03/11 08:01:29;;;;;;;7.25;1.40;;;3.90;99.90;;;;;;5063957;28;20419;-75
2023/03/11 08:03:57;;;;;;;5.15;1.27;;;4.00;99.90;;;;;;5055159;28;20033;-74
2023/03/11 08:06:26;;;;;;;5.32;1.40;;;3.70;99.90;;;;;;5057545;28;20033;-75
2023/03/11 08:08:52;;;;;;;2.90;0.85;;;3.60;99.90;;;;;;5057102;28;20470;-76
2023/03/11 08:11:20;;;;;;;4.30;1.48;;;3.60;99.90;;;;;;5063315;28;20025;-75
2023/03/11 08:13:47;;;;;;;9.27;1.33;;;3.40;99.90;;;;;;5057988;28;20037;-75
2023/03/11 08:16:16;;;;;;;5.03;1.05;;;3.50;99.90;;;;;;5054691;28;20441;-75
2023/03/11 08:18:44;;;;;;;4.40;0.95;;;3.70;99.90;;;;;;5063145;28;20055;-75
2023/03/11 08:21:15;;;;;;;7.72;1.90;;;3.80;99.90;;;;;;5061583;28;20359;-76
2023/03/11 08:23:42;;;;;;;;;;;4.10;99.90;;;;;;5060345;28;20040;-75
2023/03/11 08:26:13;;;;;;;4.72;0.80;;;4.10;99.90;;;;;;5058187;28;19920;-75
2023/03/11 08:28:40;;;;;;;2.97;1.10;;;4.40;99.90;;;;;;5058293;28;20029;-76
2023/03/11 08:31:20;;;;;;;4.63;1.40;;;4.30;99.90;;;;;;5062734;28;20032;-76
2023/03/11 08:33:51;;;;;;;6.47;1.00;;;4.50;99.90;;;;;;5059832;28;20037;-76
2023/03/11 08:36:18;;;;;;;4.72;0.90;;;4.50;99.90;;;;;;5061511;28;20044;-76
2023/03/11 08:38:45;;;;;;;12.57;1.55;;;4.70;99.90;;;;;;5060508;28;20044;-76
2023/03/11 08:41:11;;;;;;;3.45;1.00;;;4.50;99.90;;;;;;5069960;28;20095;-76
2023/03/11 08:43:38;;;;;;;3.65;1.00;;;4.50;99.90;;;;;;5062967;28;20052;-76
2023/03/11 08:46:08;;;;;;;7.20;1.17;;;4.30;99.90;;;;;;5059856;28;20096;-76
2023/03/11 08:48:36;;;;;;;6.97;1.63;;;4.20;99.90;;;;;;5051664;28;20032;-75
2023/03/11 08:51:09;;;;;;;8.23;1.10;;;4.60;99.90;;;;;;5052721;28;20875;-75
2023/03/11 08:53:36;;;;;;;4.85;0.70;;;4.60;99.90;;;;;;5062483;28;20029;-75
2023/03/11 08:56:02;;;;;;;2.95;1.20;;;4.90;99.90;;;;;;5062546;28;20397;-76
2023/03/11 08:58:29;;;;;;;8.18;2.97;;;4.70;99.90;;;;;;5061665;28;20028;-77
2023/03/11 09:00:56;;;;;;;9.35;1.42;;;4.60;99.90;;;;;;5060971;28;20414;-78
2023/03/11 09:03:22;;;;;;;5.47;0.80;;;4.70;99.90;;;;;;5073016;28;20052;-77
2023/03/11 09:05:48;;;;;;;5.78;1.13;;;5.10;99.90;;;;;;5065776;28;20456;-77
2023/03/11 09:08:14;;;;;;;8.80;1.20;;;4.70;99.90;;;;;;5064875;28;20409;-77
2023/03/11 09:10:41;;;;;;;7.53;1.30;;;4.20;99.90;;;;;;5068004;28;20389;-77
2023/03/11 09:13:07;;;;;;;2.95;0.77;;;4.40;99.90;;;;;;5061135;28;20044;-77
2023/03/11 09:15:37;;;;;;;2.58;0.90;;;5.10;99.90;;;;;;5080656;28;20036;-77
2023/03/11 09:18:03;;;;;;;7.85;1.10;;;5.20;99.90;;;;;;5064685;28;20043;-77
2023/03/11 09:20:29;;;;;;;7.28;0.88;;;5.40;99.90;;;;;;5064307;28;20036;-76
2023/03/11 09:22:56;;;;;;;5.95;1.90;;;5.70;99.90;;;;;;5064442;28;20035;-77
2023/03/11 09:25:22;;;;;;;1.83;0.63;;;6.40;99.90;;;;;;5063382;28;20043;-77
2023/03/11 09:27:48;;;;;;;5.57;0.77;;;7.10;99.90;;;;;;5060000;28;20040;-77
2023/03/11 09:30:17;;;;;;;1.67;0.63;;;6.70;99.90;;;;;;5065786;28;20466;-76
2023/03/11 09:32:43;;;;;;;2.85;0.70;;;6.10;99.90;;;;;;5061819;28;20461;-77
2023/03/11 09:35:12;;;;;;;3.05;1.00;;;5.60;99.90;;;;;;5065904;28;20462;-77
2023/03/11 09:37:38;;;;;;;5.18;0.90;;;5.30;99.90;;;;;;5062092;28;20092;-77
2023/03/11 09:40:05;;;;;;;1.80;0.63;;;4.80;99.90;;;;;;5062251;28;20052;-77
2023/03/11 09:42:55;;;;;;;2.75;0.82;;;4.50;99.90;;;;;;5063573;28;20053;-77
2023/03/11 09:45:26;;;;;;;3.95;0.80;;;4.50;99.90;;;;;;5063963;28;20036;-77
2023/03/11 09:48:18;;;;;;;2.90;0.50;;;4.50;99.90;;;;;;5064114;28;20068;-77
2023/03/11 09:51:01;;;;;;;5.72;0.70;;;4.40;99.90;;;;;;5067728;28;20044;-75
2023/03/11 09:53:40;;;;;;;3.53;0.60;;;4.20;99.90;;;;;;5058191;28;20033;-77
2023/03/11 09:56:13;;;;;;;3.10;0.50;;;4.20;99.90;;;;;;5064593;28;20052;-74
2023/03/11 09:58:47;;;;;;;5.10;0.82;;;4.70;99.90;;;;;;5065190;28;20492;-75
2023/03/11 10:01:36;;;;;;;4.63;0.70;;;4.90;99.90;;;;;;5060512;28;20036;-77
2023/03/11 10:04:29;;;;;;;5.38;0.88;;;5.10;99.90;;;;;;5058729;28;20036;-76
2023/03/11 10:07:02;;;;;;;2.33;0.50;;;5.20;99.90;;;;;;5055406;28;20078;-76
2023/03/11 10:09:53;;;;;;;2.80;0.80;;;5.20;99.90;;;;;;5066247;28;20033;-76
2023/03/11 10:12:56;;;;;;;1.48;0.77;;;5.30;99.90;;;;;;5059469;28;20041;-76
2023/03/11 10:15:40;;;;;;;1.67;0.60;;;5.50;99.90;;;;;;5059485;28;20028;-75
2023/03/11 10:18:25;;;;;;;4.68;0.93;;;5.70;99.90;;;;;;5078409;28;20317;-76
2023/03/11 10:21:08;;;;;;;1.48;0.47;;;5.70;99.90;;;;;;5079802;28;20033;-76
2023/03/11 10:24:00;;;;;;;1.13;0.40;;;5.90;99.90;;;;;;5062232;28;20028;-75
2023/03/11 10:26:31;;;;;;;3.80;0.70;;;6.00;99.90;;;;;;5066247;28;20055;-75
2023/03/11 10:29:16;;;;;;;3.78;0.80;;;5.90;99.90;;;;;;5061538;28;20075;-76
2023/03/11 10:31:59;;;;;;;1.60;0.57;;;5.30;99.90;;;;;;5063205;28;20036;-75
2023/03/11 10:34:33;;;;;;;2.35;0.50;;;5.00;99.90;;;;;;5065153;28;20039;-76
2023/03/11 10:37:20;;;;;;;4.75;1.00;;;4.70;99.90;;;;;;5068008;28;20493;-75
2023/03/11 10:39:47;;;;;;;2.58;0.55;;;4.50;99.90;;;;;;5061329;28;20029;-75
2023/03/11 10:42:23;;;;;;;1.90;0.70;;;4.90;99.90;;;;;;5063385;28;20044;-76
2023/03/11 10:44:50;;;;;;;1.58;0.50;;;5.30;99.90;;;;;;5063218;28;20057;-75
2023/03/11 10:47:18;;;;;;;1.75;0.80;;;5.40;99.90;;;;;;5064813;28;20478;-76
2023/03/11 10:49:45;;;;;;;1.60;1.05;;;5.50;99.90;;;;;;5064307;28;20353;-77
2023/03/11 10:52:12;;;;;;;1.65;0.85;;;5.90;99.90;;;;;;5060822;28;20041;-76
2023/03/11 10:54:42;;;;;;;4.32;1.80;;;6.30;99.90;;;;;;5064201;28;20033;-76
2023/03/11 10:57:21;;;;;;;1.25;0.45;;;6.00;99.90;;;;;;5059712;28;20394;-76
2023/03/11 10:59:55;;;;;;;2.20;0.50;;;6.60;99.90;;;;;;5063736;28;20040;-76
2023/03/11 11:02:31;;;;;;;2.95;0.80;;;7.00;99.90;;;;;;5062615;28;20033;-76
2023/03/11 11:05:21;;;;;;;6.43;3.47;;;7.10;99.90;;;;;;5059222;28;20038;-77
2023/03/11 11:07:49;;;;;;;2.65;0.93;;;6.80;99.90;;;;;;5059517;28;20040;-76
2023/03/11 11:10:23;;;;;;;3.42;0.85;;;6.10;99.90;;;;;;5057639;28;20049;-77
2023/03/11 11:13:12;;;;;;;1.83;0.60;;;5.90;99.90;;;;;;5065889;28;20036;-77
2023/03/11 11:16:15;;;;;;;5.20;0.70;;;5.10;99.90;;;;;;5054034;28;20029;-77
2023/03/11 11:18:45;;;;;;;3.38;0.57;;;4.70;99.90;;;;;;5058634;28;20045;-77
2023/03/11 11:21:16;;;;;;;6.88;0.88;;;4.90;99.90;;;;;;5062369;28;20525;-77
2023/03/11 11:23:47;;;;;;;4.72;0.70;;;4.80;99.90;;;;;;5063380;28;20037;-76
2023/03/11 11:26:23;;;;;;;1.67;0.82;;;4.90;99.90;;;;;;5062882;28;20043;-76
2023/03/11 11:29:10;;;;;;;3.13;0.93;;;4.90;99.90;;;;;;5056183;28;20029;-77
2023/03/11 11:31:38;;;;;;;2.72;0.60;;;4.70;99.90;;;;;;5054262;28;20044;-76
2023/03/11 11:34:21;;;;;;;4.30;0.85;;;5.00;99.90;;;;;;5048893;28;20021;-77
2023/03/11 11:36:48;;;;;;;3.10;0.85;;;5.40;99.90;;;;;;5058510;28;20035;-76
2023/03/11 11:39:17;;;;;;;3.97;0.85;;;5.30;99.90;;;;;;5070960;28;20041;-76
2023/03/11 11:41:44;;;;;;;8.07;2.25;;;5.50;99.90;;;;;;5060835;28;20505;-76
2023/03/11 11:44:18;;;;;;;3.42;0.82;;;5.70;99.90;;;;;;5061975;28;20041;-76
2023/03/11 11:46:54;;;;;;;3.75;0.82;;;6.10;99.90;;;;;;5061553;28;20044;-76
2023/03/11 11:49:27;;;;;;;2.33;0.82;;;6.30;99.90;;;;;;5054343;28;20617;-76
2023/03/11 11:52:07;;;;;;;1.65;1.15;;;6.20;99.90;;;;;;5061258;28;20029;-77
2023/03/11 11:54:53;;;;;;;5.03;0.70;;;6.60;99.90;;;;;;5058982;28;20041;-76
2023/03/11 11:57:21;;;;;;;3.05;0.80;;;6.70;99.90;;;;;;5058142;28;20039;-76
2023/03/11 11:59:47;;;;;;;3.20;0.80;;;6.50;99.90;;;;;;5060012;28;20055;-76
2023/03/11 12:02:48;;;;;;;1.80;0.63;;;6.90;99.90;;;;;;5052775;28;20041;-76
2023/03/11 12:05:24;;;;;;;1.98;0.60;;;6.90;99.90;;;;;;5057387;28;20470;-77
2023/03/11 12:07:53;;;;;;;3.20;0.95;;;6.30;99.90;;;;;;5061551;28;20032;-79
2023/03/11 12:10:32;;;;;;;3.40;0.73;;;6.10;99.90;;;;;;5064436;28;20025;-75
2023/03/11 12:13:41;;;;;;;7.28;0.70;;;5.60;99.90;;;;;;5064295;28;20048;-77
2023/03/11 12:16:46;;;;;;;3.03;0.93;;;5.70;99.90;;;;;;5046629;28;20048;-77
2023/03/11 12:19:25;;;;;;;2.00;0.68;;;5.60;99.90;;;;;;5055970;28;20052;-77
2023/03/11 12:22:25;;;;;;;5.93;1.40;;;5.60;99.90;;;;;;5062385;28;20033;-77
2023/03/11 12:25:20;;;;;;;3.90;0.77;;;5.50;99.90;;;;;;5057284;28;20051;-76
2023/03/11 12:27:58;;;;;;;4.13;2.03;;;5.60;99.90;;;;;;5062378;28;20390;-77
2023/03/11 12:30:36;;;;;;;4.18;1.30;;;5.40;99.90;;;;;;5063401;28;20037;-76
2023/03/11 12:33:10;;;;;;;2.83;0.60;;;5.90;99.90;;;;;;5040153;28;20041;-76
2023/03/11 12:35:36;;;;;;;2.05;0.70;;;6.30;99.90;;;;;;5049655;28;20045;-76
2023/03/11 12:38:16;;;;;;;3.17;0.77;;;6.30;99.40;;;;;;5049627;28;20045;-77
2023/03/11 12:40:46;;;;;;;2.75;0.77;;;6.40;99.20;;;;;;5056871;28;20040;-77
2023/03/11 12:43:32;;;;;;;3.35;0.73;;;6.30;99.50;;;;;;5066430;28;20040;-77
2023/03/11 12:46:03;;;;;;;4.25;0.70;;;6.40;98.20;;;;;;5063334;28;20378;-87
2023/03/11 12:48:41;;;;;;;3.10;1.05;;;6.50;99.90;;;;;;5063156;28;20108;-84
2023/03/11 12:51:30;;;;;;;4.50;0.80;;;6.40;98.20;;;;;;5062249;28;20044;-77
2023/03/11 12:53:59;;;;;;;2.42;0.80;;;6.30;99.40;;;;;;5065516;28;20055;-76
2023/03/11 12:56:38;;;;;;;2.88;0.80;;;6.30;98.00;;;;;;5064861;28;20393;-77
2023/03/11 12:59:23;;;;;;;2.38;1.05;;;6.20;99.90;;;;;;5061621;28;20036;-77
2023/03/11 13:02:28;;;;;;;3.03;0.90;;;6.60;99.90;;;;;;5062236;28;20036;-76
2023/03/11 13:05:22;;;;;;;3.53;0.90;;;6.60;99.30;;;;;;5059004;28;20044;-77
2023/03/11 13:07:54;;;;;;;5.38;0.93;;;6.50;99.90;;;;;;5060511;28;20041;-76
2023/03/11 13:10:34;;;;;;;6.88;1.25;;;6.80;99.90;;;;;;5057115;28;20056;-77
2023/03/11 13:13:01;;;;;;;2.40;0.90;;;6.40;99.90;;;;;;5051025;28;20108;-77
2023/03/11 13:15:30;;;;;;;4.35;0.80;;;5.90;99.90;;;;;;5060101;28;20059;-77
2023/03/11 13:18:01;;;;;;;3.47;0.90;;;5.80;99.90;;;;;;5064991;28;20096;-77